createdAt,value
2022-12-15T00:00:21.267Z,41.03
2022-12-15T00:03:27.365Z,38.67
2022-12-15T00:06:13.535Z,37.70
2022-12-15T00:08:59.524Z,36.23
2022-12-15T00:11:45.395Z,40.77
2022-12-15T00:14:31.607Z,40.83
2022-12-15T00:17:17.736Z,40.00
2022-12-15T00:20:03.762Z,41.07
2022-12-15T00:22:49.360Z,45.43
2022-12-15T00:25:35.797Z,48.73
2022-12-15T00:28:21.557Z,46.63
2022-12-15T00:31:07.400Z,48.77
2022-12-15T00:33:52.986Z,43.87
2022-12-15T00:36:38.635Z,48.83
2022-12-15T00:39:05.974Z,44.30
2022-12-15T00:41:33.488Z,44.77
2022-12-15T00:44:00.709Z,45.87
2022-12-15T00:46:46.456Z,46.03
2022-12-15T00:49:32.281Z,45.87
2022-12-15T00:52:18.553Z,43.80
2022-12-15T00:55:04.295Z,42.70
2022-12-15T00:57:50.459Z,38.93
2022-12-15T01:00:36.277Z,42.17
2022-12-15T01:03:34.994Z,41.50
2022-12-15T01:06:31.443Z,38.70
2022-12-15T01:09:18.145Z,40.47
2022-12-15T01:12:04.894Z,42.27
2022-12-15T01:14:52.047Z,41.50
2022-12-15T01:17:38.396Z,39.13
2022-12-15T01:20:14.193Z,42.13
2022-12-15T01:22:42.541Z,42.37
2022-12-15T01:25:11.452Z,40.13
2022-12-15T01:27:38.669Z,39.77
2022-12-15T01:30:08.847Z,40.90
2022-12-15T01:32:36.119Z,40.40
2022-12-15T01:35:06.090Z,39.77
2022-12-15T01:37:35.236Z,38.57
2022-12-15T01:40:23.783Z,40.17
2022-12-15T01:42:51.660Z,39.70
2022-12-15T01:46:02.197Z,41.87
2022-12-15T01:48:52.346Z,39.83
2022-12-15T01:51:32.291Z,40.40
2022-12-15T01:54:17.275Z,40.13
2022-12-15T01:56:50.418Z,40.03
2022-12-15T01:59:27.131Z,42.10
2022-12-15T02:01:54.957Z,41.83
2022-12-15T02:04:23.848Z,42.03
2022-12-15T02:06:53.140Z,43.23
2022-12-15T02:09:24.594Z,42.23
2022-12-15T02:12:41.335Z,42.43
2022-12-15T02:15:29.455Z,42.67
2022-12-15T02:18:36.327Z,42.03
2022-12-15T02:21:39.214Z,41.77
2022-12-15T02:24:45.123Z,41.83
2022-12-15T02:28:04.349Z,41.70
2022-12-15T02:30:40.444Z,42.23
2022-12-15T02:33:14.860Z,41.30
2022-12-15T02:36:16.140Z,40.50
2022-12-15T02:38:43.594Z,42.37
2022-12-15T02:41:37.120Z,41.73
2022-12-15T02:44:17.884Z,41.10
2022-12-15T02:47:04.930Z,42.37
2022-12-15T02:49:59.851Z,41.63
2022-12-15T02:53:17.959Z,41.53
2022-12-15T02:55:57.398Z,41.80
2022-12-15T02:58:54.686Z,42.00
2022-12-15T03:01:35.350Z,42.30
2022-12-15T03:04:07.394Z,42.47
2022-12-15T03:06:35.041Z,43.67
2022-12-15T03:09:02.596Z,42.27
2022-12-15T03:11:29.961Z,44.17
2022-12-15T03:13:57.971Z,41.93
2022-12-15T03:16:25.288Z,43.77
2022-12-15T03:18:53.180Z,45.20
2022-12-15T03:21:20.519Z,43.80
2022-12-15T03:23:47.973Z,41.30
2022-12-15T03:26:15.167Z,42.37
2022-12-15T03:28:42.787Z,42.20
2022-12-15T03:31:10.015Z,39.40
2022-12-15T03:33:37.476Z,41.23
2022-12-15T03:36:05.381Z,41.57
2022-12-15T03:38:33.236Z,40.70
2022-12-15T03:41:00.412Z,37.33
2022-12-15T03:43:28.254Z,42.20
2022-12-15T03:45:55.842Z,43.53
2022-12-15T03:48:23.469Z,40.87
2022-12-15T03:50:50.645Z,41.37
2022-12-15T03:53:18.142Z,43.40
2022-12-15T03:55:45.355Z,43.80
2022-12-15T03:58:12.872Z,40.53
2022-12-15T04:00:40.122Z,42.37
2022-12-15T04:03:07.789Z,42.70
2022-12-15T04:05:35.821Z,41.70
2022-12-15T04:08:03.913Z,40.60
2022-12-15T04:10:34.957Z,42.57
2022-12-15T04:13:11.244Z,42.23
2022-12-15T04:15:40.423Z,44.40
2022-12-15T04:18:11.106Z,42.83
2022-12-15T04:20:40.396Z,43.33
2022-12-15T04:23:08.620Z,42.03
2022-12-15T04:25:56.151Z,43.03
2022-12-15T04:28:42.424Z,44.43
2022-12-15T04:31:37.327Z,42.27
2022-12-15T04:34:29.905Z,42.57
2022-12-15T04:37:16.480Z,43.23
2022-12-15T04:40:07.713Z,41.83
2022-12-15T04:42:59.429Z,42.07
2022-12-15T04:45:45.260Z,44.30
2022-12-15T04:48:31.969Z,43.10
2022-12-15T04:51:18.028Z,44.60
2022-12-15T04:54:04.775Z,45.27
2022-12-15T04:56:51.697Z,42.60
2022-12-15T04:59:37.497Z,43.43
2022-12-15T05:02:23.504Z,41.93
2022-12-15T05:05:09.495Z,42.50
2022-12-15T05:07:55.478Z,44.43
2022-12-15T05:10:40.924Z,40.87
2022-12-15T05:13:28.108Z,41.90
2022-12-15T05:16:13.843Z,41.23
2022-12-15T05:19:00.003Z,41.23
2022-12-15T05:21:45.629Z,39.70
2022-12-15T05:24:31.578Z,41.17
2022-12-15T05:27:17.425Z,41.27
2022-12-15T05:30:03.137Z,54.53
2022-12-15T05:32:33.423Z,45.77
2022-12-15T05:35:01.628Z,48.63
2022-12-15T05:37:29.006Z,43.83
2022-12-15T05:39:56.523Z,49.83
2022-12-15T05:42:23.733Z,45.70
2022-12-15T05:44:51.268Z,50.67
2022-12-15T05:47:18.433Z,44.77
2022-12-15T05:49:45.950Z,49.00
2022-12-15T05:52:13.249Z,52.57
2022-12-15T05:54:40.729Z,52.97
2022-12-15T05:57:08.226Z,55.97
2022-12-15T05:59:35.770Z,54.10
2022-12-15T06:02:03.051Z,55.20
2022-12-15T06:04:30.735Z,50.30
2022-12-15T06:06:57.993Z,46.97
2022-12-15T06:09:25.447Z,46.93
2022-12-15T06:11:52.673Z,52.97
2022-12-15T06:14:20.281Z,49.77
2022-12-15T06:16:50.881Z,47.33
2022-12-15T06:19:20.230Z,45.80
2022-12-15T06:21:47.761Z,43.57
2022-12-15T06:24:15.379Z,45.37
2022-12-15T06:26:42.874Z,45.63
2022-12-15T06:29:13.342Z,41.70
2022-12-15T06:31:42.904Z,44.30
2022-12-15T06:34:16.618Z,43.83
2022-12-15T06:36:44.539Z,43.60
2022-12-15T06:39:15.315Z,45.60
2022-12-15T06:41:43.858Z,45.60
2022-12-15T06:44:16.040Z,46.17
2022-12-15T06:46:45.829Z,48.47
2022-12-15T06:49:14.687Z,50.80
2022-12-15T06:51:42.912Z,49.77
2022-12-15T06:54:11.312Z,43.73
2022-12-15T06:56:39.371Z,47.33
2022-12-15T06:59:08.524Z,46.57
2022-12-15T07:01:36.095Z,48.73
2022-12-15T07:04:05.813Z,47.73
2022-12-15T07:06:36.858Z,46.77
2022-12-15T07:09:08.461Z,48.27
2022-12-15T07:11:36.142Z,46.93
2022-12-15T07:14:03.959Z,46.73
2022-12-15T07:16:31.682Z,47.60
2022-12-15T07:18:59.363Z,46.27
2022-12-15T07:21:26.638Z,46.53
2022-12-15T07:23:56.249Z,50.10
2022-12-15T07:26:25.217Z,51.43
2022-12-15T07:28:53.941Z,50.70
2022-12-15T07:31:22.375Z,48.30
2022-12-15T07:33:52.385Z,47.60
2022-12-15T07:36:20.598Z,45.73
2022-12-15T07:38:50.704Z,49.73
2022-12-15T07:41:19.957Z,44.57
2022-12-15T07:43:48.056Z,45.90
2022-12-15T07:46:16.615Z,43.40
2022-12-15T07:48:44.304Z,49.97
2022-12-15T07:51:20.313Z,52.47
2022-12-15T07:53:52.310Z,50.17
2022-12-15T07:56:20.753Z,50.10
2022-12-15T07:58:49.570Z,50.33
2022-12-15T08:01:18.684Z,49.37
2022-12-15T08:03:46.548Z,48.20
2022-12-15T08:06:15.305Z,47.30
2022-12-15T08:08:50.398Z,48.40
2022-12-15T08:11:22.142Z,53.47
2022-12-15T08:14:02.595Z,47.83
2022-12-15T08:16:31.552Z,43.57
2022-12-15T08:18:59.141Z,41.23
2022-12-15T08:21:26.475Z,43.23
2022-12-15T08:23:54.367Z,43.67
2022-12-15T08:26:26.565Z,46.07
2022-12-15T08:28:55.863Z,48.23
2022-12-15T08:31:24.591Z,44.33
2022-12-15T08:33:52.472Z,44.10
2022-12-15T08:36:20.616Z,43.60
2022-12-15T08:38:48.327Z,42.30
2022-12-15T08:41:23.299Z,38.17
2022-12-15T08:43:52.235Z,40.38
2022-12-15T08:46:23.557Z,39.37
2022-12-15T08:48:53.038Z,42.53
2022-12-15T08:51:22.481Z,41.90
2022-12-15T08:53:50.253Z,40.27
2022-12-15T08:56:20.855Z,36.80
2022-12-15T08:58:51.233Z,36.90
2022-12-15T09:01:24.018Z,37.43
2022-12-15T09:03:54.505Z,38.20
2022-12-15T09:06:26.439Z,39.33
2022-12-15T09:09:00.873Z,41.37
2022-12-15T09:11:29.958Z,38.58
2022-12-15T09:13:58.327Z,39.63
2022-12-15T09:16:28.023Z,40.50
2022-12-15T09:18:58.936Z,36.67
2022-12-15T09:21:29.604Z,39.30
2022-12-15T09:24:01.885Z,41.73
2022-12-15T09:26:33.158Z,41.57
2022-12-15T09:29:02.192Z,44.78
2022-12-15T09:31:33.651Z,43.80
2022-12-15T09:34:02.438Z,38.75
2022-12-15T09:36:33.013Z,40.03
2022-12-15T09:39:02.663Z,38.28
2022-12-15T09:41:36.431Z,41.78
2022-12-15T09:44:21.425Z,40.88
2022-12-15T09:47:36.953Z,41.07
2022-12-15T09:50:11.004Z,40.03
2022-12-15T09:53:00.206Z,38.72
2022-12-15T09:55:33.106Z,40.10
2022-12-15T09:58:16.306Z,42.37
2022-12-15T10:00:56.718Z,38.42
2022-12-15T10:03:58.718Z,38.15
2022-12-15T10:06:36.990Z,35.95
2022-12-15T10:09:28.001Z,34.70
2022-12-15T10:12:15.545Z,35.88
2022-12-15T10:15:01.218Z,54.45
2022-12-15T10:17:52.239Z,58.63
2022-12-15T10:20:30.163Z,70.75
2022-12-15T10:23:15.185Z,57.40
2022-12-15T10:25:59.859Z,43.63
2022-12-15T10:29:03.471Z,34.80
2022-12-15T10:32:00.268Z,38.50
2022-12-15T10:34:38.128Z,44.33
2022-12-15T10:37:06.978Z,41.53
2022-12-15T10:39:47.393Z,40.90
2022-12-15T10:42:24.689Z,40.13
2022-12-15T10:44:56.498Z,37.25
2022-12-15T10:47:27.989Z,37.92
2022-12-15T10:50:24.078Z,38.92
2022-12-15T10:52:52.333Z,44.80
2022-12-15T10:55:38.121Z,47.05
2022-12-15T10:58:20.794Z,44.97
2022-12-15T11:01:07.043Z,39.90
2022-12-15T11:03:39.158Z,40.65
2022-12-15T11:06:26.457Z,37.25
2022-12-15T11:08:57.707Z,40.75
2022-12-15T11:11:47.146Z,33.85
2022-12-15T11:14:19.848Z,34.50
2022-12-15T11:16:59.312Z,37.08
2022-12-15T11:19:47.495Z,38.33
2022-12-15T11:22:38.751Z,36.85
2022-12-15T11:25:25.136Z,35.70
2022-12-15T11:27:59.312Z,39.20
2022-12-15T11:30:45.381Z,36.33
2022-12-15T11:33:13.296Z,34.72
2022-12-15T11:35:46.652Z,33.17
2022-12-15T11:38:40.193Z,37.75
2022-12-15T11:41:43.552Z,32.97
2022-12-15T11:44:16.467Z,35.03
2022-12-15T11:46:54.601Z,32.60
2022-12-15T11:50:01.894Z,32.83
2022-12-15T11:53:06.834Z,48.45
2022-12-15T11:55:49.799Z,40.50
2022-12-15T11:58:41.095Z,36.85
2022-12-15T12:01:36.768Z,34.85
2022-12-15T12:04:35.839Z,34.13
2022-12-15T12:07:20.791Z,34.03
2022-12-15T12:10:15.655Z,33.78
2022-12-15T12:13:00.510Z,34.92
2022-12-15T12:16:01.902Z,35.67
2022-12-15T12:18:50.613Z,34.25
2022-12-15T12:21:35.088Z,35.47
2022-12-15T12:24:16.403Z,37.17
2022-12-15T12:26:59.520Z,36.15
2022-12-15T12:29:45.408Z,39.38
2022-12-15T12:33:05.444Z,49.25
2022-12-15T12:35:48.937Z,36.15
2022-12-15T12:38:25.157Z,35.42
2022-12-15T12:41:31.928Z,38.55
2022-12-15T12:44:31.043Z,37.13
2022-12-15T12:47:11.949Z,42.80
2022-12-15T12:50:02.194Z,41.25
2022-12-15T12:52:38.216Z,38.28
2022-12-15T12:55:17.254Z,40.55
2022-12-15T12:57:46.330Z,34.28
2022-12-15T13:00:18.061Z,36.30
2022-12-15T13:03:16.572Z,36.55
2022-12-15T13:05:48.867Z,34.80
2022-12-15T13:08:50.816Z,35.47
2022-12-15T13:11:51.693Z,41.22
2022-12-15T13:14:39.394Z,36.65
2022-12-15T13:17:27.962Z,37.22
2022-12-15T13:20:01.603Z,38.00
2022-12-15T13:22:36.922Z,35.75
2022-12-15T13:25:53.643Z,39.85
2022-12-15T13:28:40.812Z,36.03
2022-12-15T13:31:21.055Z,37.95
2022-12-15T13:33:52.396Z,36.97
2022-12-15T13:36:41.121Z,33.63
2022-12-15T13:39:17.463Z,37.10
2022-12-15T13:45:05.102Z,35.58
2022-12-15T13:47:33.970Z,36.47
2022-12-15T13:50:09.317Z,32.72
2022-12-15T13:55:51.037Z,31.38
2022-12-15T13:58:21.705Z,28.23
2022-12-15T14:00:55.578Z,32.10
2022-12-15T14:03:24.672Z,30.00
2022-12-15T14:05:59.738Z,24.83
2022-12-15T14:08:30.983Z,25.23
2022-12-15T14:16:37.766Z,35.17
2022-12-15T14:19:17.999Z,37.47
2022-12-15T14:21:59.549Z,32.93
2022-12-15T14:24:46.370Z,35.37
2022-12-15T14:27:29.185Z,38.37
2022-12-15T14:30:32.990Z,41.22
2022-12-15T14:33:16.341Z,38.40
2022-12-15T14:35:51.150Z,37.57
2022-12-15T14:38:33.132Z,35.10
2022-12-15T14:41:04.220Z,36.58
2022-12-15T14:43:40.189Z,38.93
2022-12-15T14:46:24.731Z,40.17
2022-12-15T14:49:06.108Z,42.10
2022-12-15T14:51:47.060Z,36.37
2022-12-15T14:54:32.608Z,34.90
2022-12-15T14:57:16.195Z,32.00
2022-12-15T14:59:48.724Z,27.70
2022-12-15T15:02:26.880Z,34.30
2022-12-15T15:03:05.770Z,26.27
2022-12-15T15:03:11.749Z,31.88
2022-12-15T15:05:03.519Z,29.07
2022-12-15T15:07:38.075Z,30.47
2022-12-15T15:10:29.338Z,27.67
2022-12-15T15:12:56.945Z,28.10
2022-12-15T15:15:26.948Z,31.47
2022-12-15T15:17:59.511Z,34.13
2022-12-15T15:20:37.895Z,43.67
2022-12-15T15:23:08.388Z,41.13
2022-12-15T15:25:49.475Z,35.60
2022-12-15T15:28:20.503Z,37.17
2022-12-15T15:30:50.780Z,37.50
2022-12-15T15:33:19.934Z,37.37
2022-12-15T15:36:06.534Z,35.25
2022-12-15T15:38:39.853Z,37.53
2022-12-15T15:41:33.308Z,35.45
2022-12-15T15:44:02.592Z,34.83
2022-12-15T15:46:36.022Z,35.70
2022-12-15T15:49:13.231Z,41.60
2022-12-15T15:51:41.192Z,46.20
2022-12-15T15:54:16.687Z,55.60
2022-12-15T15:56:44.083Z,54.25
2022-12-15T15:59:15.316Z,62.13
2022-12-15T16:01:45.159Z,66.60
2022-12-15T16:04:12.986Z,58.20
2022-12-15T16:06:46.789Z,54.67
2022-12-15T16:09:16.920Z,48.33
2022-12-15T16:11:46.605Z,40.17
2022-12-15T16:14:17.364Z,38.25
2022-12-15T16:16:45.891Z,36.25
2022-12-15T16:19:13.559Z,39.77
2022-12-15T16:21:43.063Z,39.28
2022-12-15T16:24:17.795Z,36.00
2022-12-15T16:26:50.640Z,32.43
2022-12-15T16:29:21.747Z,32.27
2022-12-15T16:31:49.587Z,34.83
2022-12-15T16:34:17.619Z,33.17
2022-12-15T16:36:45.379Z,35.42
2022-12-15T16:39:34.810Z,37.00
2022-12-15T16:42:02.933Z,37.17
2022-12-15T16:44:31.106Z,36.00
2022-12-15T16:46:59.550Z,35.53
2022-12-15T16:49:33.840Z,36.77
2022-12-15T16:52:05.612Z,36.50
2022-12-15T16:54:33.273Z,36.63
2022-12-15T16:57:00.567Z,38.13
2022-12-15T16:59:36.272Z,39.90
2022-12-15T17:02:17.303Z,40.77
2022-12-15T17:04:44.985Z,37.13
2022-12-15T17:07:20.091Z,47.50
2022-12-15T17:09:50.504Z,45.97
2022-12-15T17:12:18.382Z,48.63
2022-12-15T17:14:46.336Z,53.33
2022-12-15T17:17:19.509Z,51.70
2022-12-15T17:20:19.652Z,63.03
2022-12-15T17:22:36.415Z,55.83
2022-12-15T17:25:04.348Z,58.40
2022-12-15T17:27:32.012Z,56.17
2022-12-15T17:30:01.453Z,56.97
2022-12-15T17:32:28.761Z,56.83
2022-12-15T17:34:56.750Z,54.43
2022-12-15T17:37:26.186Z,55.30
2022-12-15T17:39:56.893Z,60.53
2022-12-15T17:42:24.159Z,61.43
2022-12-15T17:44:51.971Z,59.43
2022-12-15T17:47:19.580Z,60.10
2022-12-15T17:49:47.531Z,59.13
2022-12-15T17:52:28.463Z,56.13
2022-12-15T17:54:57.357Z,60.93
2022-12-15T17:57:25.666Z,56.20
2022-12-15T17:59:53.839Z,53.67
2022-12-15T18:02:21.206Z,57.00
2022-12-15T18:04:48.802Z,48.63
2022-12-15T18:07:22.992Z,57.97
2022-12-15T18:09:52.501Z,59.50
2022-12-15T18:12:26.495Z,56.97
2022-12-15T18:14:56.060Z,48.63
2022-12-15T18:17:24.227Z,57.77
2022-12-15T18:19:51.781Z,49.13
2022-12-15T18:22:25.326Z,54.80
2022-12-15T18:24:54.460Z,51.53
2022-12-15T18:27:28.198Z,52.23
2022-12-15T18:29:57.193Z,60.17
2022-12-15T18:32:27.452Z,65.53
2022-12-15T18:34:55.764Z,64.37
2022-12-15T18:37:28.273Z,63.47
2022-12-15T18:39:59.516Z,60.50
2022-12-15T18:42:31.318Z,58.10
2022-12-15T18:45:00.523Z,49.93
2022-12-15T18:47:27.984Z,53.10
2022-12-15T18:49:55.630Z,54.27
2022-12-15T18:52:27.525Z,53.73
2022-12-15T18:54:57.742Z,56.03
2022-12-15T18:57:42.915Z,55.37
2022-12-15T19:00:13.105Z,53.87
2022-12-15T19:02:41.902Z,55.50
2022-12-15T19:05:27.492Z,53.73
2022-12-15T19:08:10.212Z,54.97
2022-12-15T19:10:49.707Z,56.13
2022-12-15T19:13:22.351Z,55.87
2022-12-15T19:15:50.565Z,52.07
2022-12-15T19:18:40.626Z,52.80
2022-12-15T19:21:32.528Z,56.70
2022-12-15T19:24:00.724Z,51.97
2022-12-15T19:26:28.346Z,55.10
2022-12-15T19:28:55.827Z,54.87
2022-12-15T19:31:23.719Z,54.37
2022-12-15T19:33:51.181Z,49.97
2022-12-15T19:36:26.147Z,53.43
2022-12-15T19:38:55.805Z,50.97
2022-12-15T19:41:23.682Z,50.97
2022-12-15T19:43:51.039Z,50.90
2022-12-15T19:46:21.530Z,48.10
2022-12-15T19:48:49.061Z,43.63
2022-12-15T19:51:23.257Z,47.70
2022-12-15T19:53:50.700Z,52.17
2022-12-15T19:56:22.008Z,53.10
2022-12-15T19:58:49.641Z,54.73
2022-12-15T20:01:21.268Z,50.43
2022-12-15T20:03:52.583Z,50.90
2022-12-15T20:06:27.109Z,49.03
2022-12-15T20:08:56.983Z,46.63
2022-12-15T20:11:32.434Z,50.87
2022-12-15T20:14:01.733Z,51.47
2022-12-15T20:16:29.431Z,51.73
2022-12-15T20:18:56.742Z,50.10
2022-12-15T20:21:33.413Z,51.90
2022-12-15T20:24:18.939Z,50.90
2022-12-15T20:26:47.165Z,52.60
2022-12-15T20:29:28.567Z,50.03
2022-12-15T20:31:58.842Z,49.53
2022-12-15T20:34:26.561Z,49.83
2022-12-15T20:36:54.208Z,50.30
2022-12-15T20:39:29.541Z,50.37
2022-12-15T20:41:57.915Z,49.90
2022-12-15T20:44:25.468Z,52.50
2022-12-15T20:46:54.785Z,47.93
2022-12-15T20:49:24.196Z,48.07
2022-12-15T20:51:51.954Z,47.83
2022-12-15T20:54:22.031Z,45.33
2022-12-15T20:56:50.679Z,49.07
2022-12-15T20:59:18.485Z,46.07
2022-12-15T21:01:47.051Z,43.37
2022-12-15T21:04:28.967Z,44.90
2022-12-15T21:06:57.058Z,44.97
2022-12-15T21:09:25.128Z,47.03
2022-12-15T21:11:55.127Z,44.67
2022-12-15T21:14:24.115Z,42.60
2022-12-15T21:16:52.416Z,42.30
2022-12-15T21:19:21.616Z,42.40
2022-12-15T21:21:55.079Z,42.37
2022-12-15T21:24:28.747Z,43.00
2022-12-15T21:26:56.596Z,40.60
2022-12-15T21:29:28.286Z,39.83
2022-12-15T21:31:55.893Z,39.10
2022-12-15T21:34:23.171Z,40.60
2022-12-15T21:36:54.948Z,40.37
2022-12-15T21:39:35.580Z,42.57
2022-12-15T21:42:21.839Z,40.03
2022-12-15T21:44:49.098Z,38.97
2022-12-15T21:47:48.929Z,37.27
2022-12-15T21:50:18.812Z,38.50
2022-12-15T21:52:47.755Z,41.50
2022-12-15T21:55:26.281Z,39.53
2022-12-15T21:57:55.296Z,43.30
2022-12-15T22:00:24.330Z,46.67
2022-12-15T22:02:54.031Z,43.63
2022-12-15T22:05:21.945Z,40.07
2022-12-15T22:07:50.841Z,39.83
2022-12-15T22:10:19.298Z,38.33
2022-12-15T22:12:58.994Z,42.83
2022-12-15T22:15:28.974Z,42.07
2022-12-15T22:17:56.568Z,41.23
2022-12-15T22:20:25.450Z,38.90
2022-12-15T22:22:52.958Z,38.07
2022-12-15T22:25:24.711Z,40.67
2022-12-15T22:27:52.899Z,41.67
2022-12-15T22:30:26.963Z,40.90
2022-12-15T22:32:54.721Z,40.87
2022-12-15T22:35:27.312Z,42.60
2022-12-15T22:37:56.115Z,41.27
2022-12-15T22:40:24.613Z,45.60
2022-12-15T22:42:57.876Z,45.43
2022-12-15T22:45:25.289Z,43.80
2022-12-15T22:47:55.181Z,48.23
2022-12-15T22:50:26.958Z,44.43
2022-12-15T22:52:54.991Z,41.83
2022-12-15T22:55:24.696Z,44.73
2022-12-15T22:58:07.135Z,41.33
2022-12-15T23:00:34.618Z,44.63
2022-12-15T23:03:02.637Z,42.23
2022-12-15T23:05:29.957Z,43.37
2022-12-15T23:07:59.138Z,42.73
2022-12-15T23:10:45.366Z,41.37
2022-12-15T23:13:12.865Z,40.10
2022-12-15T23:15:58.676Z,43.40
2022-12-15T23:18:26.189Z,43.43
2022-12-15T23:20:54.024Z,44.13
2022-12-15T23:23:22.181Z,40.10
2022-12-15T23:25:49.369Z,40.57
2022-12-15T23:28:16.889Z,40.57
2022-12-15T23:30:50.302Z,38.73
2022-12-15T23:33:19.002Z,39.77
2022-12-15T23:35:46.606Z,36.97
2022-12-15T23:38:14.268Z,39.10
2022-12-15T23:40:52.776Z,38.57
2022-12-15T23:43:22.109Z,36.97
2022-12-15T23:46:03.202Z,37.77
2022-12-15T23:48:34.707Z,37.10
2022-12-15T23:51:15.563Z,36.23
2022-12-15T23:53:45.518Z,37.80
2022-12-15T23:56:15.120Z,36.17
2022-12-15T23:58:45.072Z,37.53
